Time;durP1;ratioP1;P1;durP2;ratioP2;P2;SDS_P1;SDS_P2;PMS_P1;PMS_P2;Temp;Humidity;BMP_temperature;BMP_pressure;BME280_temperature;BME280_humidity;BME280_pressure;Samples;Min_cycle;Max_cycle;Signal;HPM_P1;HPM_P2
2023/02/01 00:01:53;;;;;;;2.30;1.80;;;5.80;99.90;;;;;;5072786;28;20020;-43
2023/02/01 00:04:19;;;;;;;2.85;1.90;;;5.80;99.90;;;;;;5072649;28;20028;-38
2023/02/01 00:06:45;;;;;;;2.72;1.98;;;6.00;99.90;;;;;;5072722;28;20032;-35
2023/02/01 00:09:10;;;;;;;2.25;1.80;;;6.10;99.90;;;;;;5072869;28;20458;-43
2023/02/01 00:11:36;;;;;;;3.20;2.10;;;6.40;99.90;;;;;;5072751;28;20035;-32
2023/02/01 00:14:02;;;;;;;2.72;1.73;;;6.60;99.90;;;;;;5074491;28;20055;-42
2023/02/01 00:16:29;;;;;;;2.67;1.90;;;6.70;99.90;;;;;;5073392;28;20036;-38
2023/02/01 00:19:10;;;;;;;3.50;1.95;;;6.60;99.90;;;;;;5073240;28;20025;-39
2023/02/01 00:21:36;;;;;;;2.92;1.83;;;6.60;99.90;;;;;;5073310;28;20028;-40
2023/02/01 00:24:02;;;;;;;3.67;2.17;;;6.50;99.90;;;;;;5070924;28;20576;-43
2023/02/01 00:26:32;;;;;;;2.30;1.88;;;6.40;99.90;;;;;;5071887;28;20036;-35
2023/02/01 00:28:59;;;;;;;2.38;1.90;;;6.30;99.90;;;;;;5072049;28;20031;-37
2023/02/01 00:31:24;;;;;;;2.80;1.95;;;6.30;99.90;;;;;;5072002;28;20100;-42
2023/02/01 00:33:50;;;;;;;3.00;1.98;;;6.20;99.90;;;;;;5072030;28;20457;-43
2023/02/01 00:36:16;;;;;;;2.42;1.80;;;6.10;99.90;;;;;;5072047;28;20082;-38
2023/02/01 00:38:42;;;;;;;2.65;1.83;;;6.00;99.90;;;;;;5071907;28;20028;-36
2023/02/01 00:41:12;;;;;;;3.30;2.10;;;6.00;99.90;;;;;;5071911;28;20032;-35
2023/02/01 00:43:38;;;;;;;4.47;2.13;;;6.00;99.90;;;;;;5072222;28;20398;-43
2023/02/01 00:46:04;;;;;;;2.13;1.80;;;5.90;99.90;;;;;;5071553;28;20454;-34
2023/02/01 00:48:30;;;;;;;2.65;1.80;;;5.90;99.90;;;;;;5071729;28;20021;-43
2023/02/01 00:51:11;;;;;;;3.53;1.90;;;5.90;99.90;;;;;;5071742;28;20029;-36
2023/02/01 00:53:36;;;;;;;3.35;1.90;;;5.80;99.90;;;;;;5072732;28;20024;-43
2023/02/01 00:56:03;;;;;;;3.08;2.03;;;5.80;99.90;;;;;;5072275;28;20051;-43
2023/02/01 00:58:29;;;;;;;2.50;1.88;;;5.80;99.90;;;;;;5071474;28;20440;-36
2023/02/01 01:01:01;;;;;;;3.50;1.70;;;5.80;99.90;;;;;;5070029;28;20021;-43
2023/02/01 01:03:26;;;;;;;2.33;1.75;;;5.80;99.90;;;;;;5074906;28;20116;-34
2023/02/01 01:05:57;;;;;;;2.25;1.60;;;5.90;99.90;;;;;;5072158;28;20100;-37
2023/02/01 01:08:22;;;;;;;2.92;1.45;;;6.10;99.90;;;;;;5071464;28;20490;-41
2023/02/01 01:10:49;;;;;;;2.30;1.88;;;6.30;99.90;;;;;;5071301;28;20024;-33
2023/02/01 01:13:15;;;;;;;2.35;1.73;;;6.50;99.90;;;;;;5071358;28;20501;-42
2023/02/01 01:15:41;;;;;;;2.60;1.70;;;6.70;99.90;;;;;;5071076;28;20029;-42
2023/02/01 01:18:07;;;;;;;3.50;1.70;;;6.70;99.90;;;;;;5071408;28;20094;-43
2023/02/01 01:20:37;;;;;;;2.42;1.75;;;6.60;99.90;;;;;;5071210;28;20024;-36
2023/02/01 01:23:04;;;;;;;2.80;1.73;;;6.60;99.90;;;;;;5071229;28;20052;-37
2023/02/01 01:25:30;;;;;;;3.03;1.65;;;6.50;99.90;;;;;;5071262;28;20037;-43
2023/02/01 01:27:55;;;;;;;2.88;1.52;;;6.40;99.90;;;;;;5070935;28;20496;-43
2023/02/01 01:30:21;;;;;;;3.28;1.70;;;6.30;99.90;;;;;;5071688;28;20111;-39
2023/02/01 01:32:47;;;;;;;2.00;1.80;;;6.20;99.90;;;;;;5072084;28;20035;-38
2023/02/01 01:35:12;;;;;;;3.28;1.60;;;6.10;99.90;;;;;;5072945;28;20096;-34
2023/02/01 01:37:38;;;;;;;2.42;1.50;;;6.10;99.90;;;;;;5071236;28;20491;-39
2023/02/01 01:40:05;;;;;;;2.83;1.77;;;6.10;99.90;;;;;;5071514;28;20024;-43
2023/02/01 01:42:40;;;;;;;1.60;1.45;;;6.00;99.90;;;;;;5071105;28;20035;-41
2023/02/01 01:45:11;;;;;;;1.70;1.52;;;6.00;99.90;;;;;;5071458;28;20417;-35
2023/02/01 01:47:41;;;;;;;2.40;1.60;;;5.90;99.90;;;;;;5070734;28;20103;-41
2023/02/01 01:50:11;;;;;;;2.88;1.70;;;5.90;99.90;;;;;;5071216;28;20024;-40
2023/02/01 01:52:40;;;;;;;2.30;1.70;;;5.80;99.90;;;;;;5071082;28;20039;-36
2023/02/01 01:55:06;;;;;;;3.50;1.63;;;5.80;99.90;;;;;;5071643;28;20025;-39
2023/02/01 01:57:39;;;;;;;2.35;1.42;;;5.80;99.90;;;;;;5070731;28;20032;-43
2023/02/01 02:00:15;;;;;;;2.03;1.67;;;5.80;99.90;;;;;;5071263;28;20482;-40
2023/02/01 02:02:43;;;;;;;2.55;1.50;;;5.80;99.90;;;;;;5071160;28;20488;-37
2023/02/01 02:05:09;;;;;;;2.00;1.50;;;5.80;99.90;;;;;;5071568;28;20029;-42
2023/02/01 02:07:40;;;;;;;1.70;1.35;;;5.90;99.90;;;;;;5070712;28;20024;-43
2023/02/01 02:10:10;;;;;;;2.13;1.42;;;6.20;99.90;;;;;;5070954;28;20059;-36
2023/02/01 02:12:39;;;;;;;1.75;1.42;;;6.40;99.90;;;;;;5071107;28;20486;-43
2023/02/01 02:15:06;;;;;;;1.75;1.35;;;6.70;99.90;;;;;;5070798;28;20025;-43
2023/02/01 02:17:48;;;;;;;1.83;1.38;;;6.70;99.90;;;;;;5070488;28;20024;-42
2023/02/01 02:20:26;;;;;;;1.75;1.35;;;6.70;99.90;;;;;;5071756;28;20424;-43
2023/02/01 02:23:22;;;;;;;1.80;1.30;;;6.60;99.90;;;;;;5071358;28;20052;-43
2023/02/01 02:26:12;;;;;;;2.20;1.58;;;6.60;99.90;;;;;;5072241;28;20036;-40
2023/02/01 02:28:40;;;;;;;1.90;1.27;;;6.50;99.90;;;;;;5070915;28;20045;-34
2023/02/01 02:31:32;;;;;;;2.15;1.40;;;6.40;99.90;;;;;;5070775;28;20016;-37
2023/02/01 02:34:03;;;;;;;3.47;1.52;;;6.30;99.90;;;;;;5070556;28;20021;-43
2023/02/01 02:36:45;;;;;;;2.88;1.50;;;6.20;99.90;;;;;;5071422;28;20024;-40
2023/02/01 02:39:21;;;;;;;1.50;1.20;;;6.10;99.90;;;;;;5070448;28;20103;-43
2023/02/01 02:48:04;;;;;;;2.33;1.35;;;5.90;99.90;;;;;;5073952;28;20543;-42
2023/02/01 03:05:02;;;;;;;2.00;1.20;;;5.90;99.90;;;;;;5074510;28;20265;-36
2023/02/01 03:07:55;;;;;;;2.15;1.20;;;6.00;99.90;;;;;;5073530;28;20482;-42
2023/02/01 03:10:56;;;;;;;1.60;1.30;;;6.30;99.90;;;;;;5073876;28;20020;-43
2023/02/01 03:13:40;;;;;;;1.80;1.20;;;6.60;99.90;;;;;;5073605;28;20100;-44
2023/02/01 03:16:18;;;;;;;3.17;1.30;;;6.70;99.90;;;;;;5073728;28;20459;-43
2023/02/01 03:19:11;;;;;;;1.83;1.35;;;6.80;99.90;;;;;;5074096;28;20099;-36
2023/02/01 03:22:01;;;;;;;1.67;1.20;;;6.70;99.90;;;;;;5073562;28;20024;-41
2023/02/01 03:24:34;;;;;;;2.03;1.27;;;6.60;99.90;;;;;;5072274;28;20031;-38
2023/02/01 03:27:22;;;;;;;2.03;1.17;;;6.50;99.90;;;;;;5073043;28;20067;-41
2023/02/01 03:30:17;;;;;;;2.22;1.10;;;6.50;99.90;;;;;;5073340;28;20021;-43
2023/02/01 03:33:01;;;;;;;3.55;1.50;;;6.30;99.90;;;;;;5073449;28;20458;-40
2023/02/01 03:35:50;;;;;;;1.50;1.30;;;6.30;99.90;;;;;;5073041;28;20395;-42
2023/02/01 03:38:24;;;;;;;1.70;1.50;;;6.20;99.90;;;;;;5073494;28;20028;-41
2023/02/01 03:41:32;;;;;;;2.35;1.38;;;6.10;99.90;;;;;;5073154;28;20031;-43
2023/02/01 03:44:22;;;;;;;1.60;1.30;;;6.00;99.90;;;;;;5072938;28;20035;-42
2023/02/01 03:46:59;;;;;;;3.08;1.30;;;6.00;99.90;;;;;;5072921;28;20094;-43
2023/02/01 03:49:36;;;;;;;1.90;1.30;;;6.00;99.90;;;;;;5073987;28;20355;-36
2023/02/01 03:52:03;;;;;;;1.50;1.08;;;5.90;99.90;;;;;;5072630;28;20043;-42
2023/02/01 03:54:30;;;;;;;1.65;1.17;;;5.90;99.90;;;;;;5072569;28;20154;-44
2023/02/01 03:57:00;;;;;;;1.33;1.10;;;5.90;99.90;;;;;;5072623;28;20487;-44
2023/02/01 03:59:26;;;;;;;1.20;1.05;;;5.80;99.90;;;;;;5072938;28;20021;-44
2023/02/01 04:01:52;;;;;;;1.38;1.00;;;5.80;99.90;;;;;;5073275;28;20052;-38
2023/02/01 04:04:21;;;;;;;1.50;1.13;;;5.90;99.90;;;;;;5072619;28;20020;-43
2023/02/01 04:06:48;;;;;;;1.90;1.20;;;6.00;99.90;;;;;;5072825;28;20028;-41
2023/02/01 04:09:14;;;;;;;1.38;1.05;;;6.20;99.90;;;;;;5072593;28;20027;-43
2023/02/01 04:11:39;;;;;;;1.42;1.00;;;6.40;99.90;;;;;;5072465;28;20017;-43
2023/02/01 04:14:05;;;;;;;1.55;1.10;;;6.60;99.90;;;;;;5072480;28;20060;-42
2023/02/01 04:16:31;;;;;;;1.30;1.10;;;6.80;99.90;;;;;;5072152;28;20038;-39
2023/02/01 04:18:58;;;;;;;1.38;1.00;;;6.80;99.90;;;;;;5072265;28;20024;-42
2023/02/01 04:21:25;;;;;;;1.45;1.10;;;6.70;99.90;;;;;;5072860;28;20119;-37
2023/02/01 04:23:51;;;;;;;1.27;1.10;;;6.70;99.90;;;;;;5072376;28;20035;-43
2023/02/01 04:26:16;;;;;;;1.20;1.10;;;6.60;99.90;;;;;;5072019;28;20017;-34
2023/02/01 04:28:42;;;;;;;1.30;1.00;;;6.50;99.90;;;;;;5072196;28;20035;-43
2023/02/01 04:31:08;;;;;;;1.20;1.10;;;6.40;99.90;;;;;;5072183;28;20034;-42
2023/02/01 04:33:33;;;;;;;1.20;1.00;;;6.30;99.90;;;;;;5072231;28;20020;-42
2023/02/01 04:35:59;;;;;;;1.48;1.00;;;6.30;99.90;;;;;;5071874;28;20029;-36
2023/02/01 04:38:25;;;;;;;1.63;1.00;;;6.20;99.90;;;;;;5072912;28;20356;-43
2023/02/01 04:40:50;;;;;;;1.70;1.02;;;6.10;99.90;;;;;;5073539;28;20020;-37
2023/02/01 04:43:17;;;;;;;1.48;1.05;;;6.10;99.90;;;;;;5071884;28;20099;-41
2023/02/01 04:45:47;;;;;;;1.50;0.90;;;6.00;99.90;;;;;;5071739;28;20051;-38
2023/02/01 04:48:12;;;;;;;0.98;0.88;;;6.00;99.90;;;;;;5071765;28;20031;-43
2023/02/01 04:50:38;;;;;;;1.42;1.10;;;6.00;99.90;;;;;;5072433;28;20028;-35
2023/02/01 04:53:04;;;;;;;0.90;0.80;;;5.90;99.90;;;;;;5071818;28;20028;-43
2023/02/01 04:55:30;;;;;;;1.10;0.85;;;5.90;99.90;;;;;;5071851;28;20115;-34
2023/02/01 04:57:56;;;;;;;1.60;1.00;;;5.90;99.90;;;;;;5071310;28;20024;-43
2023/02/01 05:00:22;;;;;;;1.33;1.00;;;5.90;99.90;;;;;;5071877;28;20028;-34
2023/02/01 05:02:47;;;;;;;0.80;0.80;;;5.90;99.90;;;;;;5071527;28;20492;-35
2023/02/01 05:05:13;;;;;;;1.33;0.93;;;5.90;99.90;;;;;;5071629;28;20027;-35
2023/02/01 05:07:39;;;;;;;1.70;1.00;;;6.10;99.90;;;;;;5071301;28;20115;-41
2023/02/01 05:10:05;;;;;;;1.45;1.00;;;6.30;99.90;;;;;;5072265;28;20016;-43
2023/02/01 05:15:14;;;;;;;1.15;0.85;;;6.70;99.90;;;;;;5071654;28;20040;-35
2023/02/01 05:17:40;;;;;;;1.08;0.98;;;6.80;99.90;;;;;;5071130;28;20024;-35
2023/02/01 05:20:07;;;;;;;1.05;0.90;;;6.80;99.90;;;;;;5071955;28;20462;-43
2023/02/01 05:22:33;;;;;;;1.00;0.90;;;6.70;99.90;;;;;;5073932;28;20102;-43
2023/02/01 05:24:58;;;;;;;1.10;0.88;;;6.60;99.90;;;;;;5072382;28;20024;-34
2023/02/01 05:27:24;;;;;;;0.90;0.80;;;6.60;99.90;;;;;;5071123;28;20028;-41
2023/02/01 05:29:49;;;;;;;1.27;0.98;;;6.50;99.90;;;;;;5071117;28;20028;-40
2023/02/01 05:32:15;;;;;;;1.30;0.80;;;6.40;99.90;;;;;;5071318;28;20558;-43
2023/02/01 05:34:41;;;;;;;2.03;1.00;;;6.30;99.90;;;;;;5070988;28;20095;-37
2023/02/01 05:37:06;;;;;;;1.52;0.82;;;6.20;99.90;;;;;;5071138;28;20482;-38
2023/02/01 05:39:32;;;;;;;1.00;0.90;;;6.20;99.90;;;;;;5071142;28;20367;-37
2023/02/01 05:41:58;;;;;;;1.15;0.90;;;6.20;99.90;;;;;;5071937;28;20062;-43
2023/02/01 05:44:23;;;;;;;1.92;1.15;;;6.10;99.90;;;;;;5071256;28;20656;-35
2023/02/01 05:46:49;;;;;;;2.20;1.17;;;6.10;99.90;;;;;;5070873;28;20031;-42
2023/02/01 05:49:14;;;;;;;1.60;1.17;;;6.00;99.90;;;;;;5071053;28;20103;-37
2023/02/01 05:51:40;;;;;;;2.03;1.30;;;5.90;99.90;;;;;;5070922;28;20048;-37
2023/02/01 05:54:06;;;;;;;3.08;1.58;;;5.90;99.90;;;;;;5071024;28;20029;-43
2023/02/01 05:56:31;;;;;;;2.00;1.40;;;5.90;99.90;;;;;;5070639;28;20028;-32
2023/02/01 05:58:57;;;;;;;1.85;1.40;;;5.80;99.90;;;;;;5072349;28;20032;-42
2023/02/01 06:01:22;;;;;;;2.67;1.45;;;5.80;99.90;;;;;;5071557;28;20056;-37
2023/02/01 06:03:48;;;;;;;1.30;1.20;;;5.80;99.90;;;;;;5071936;28;20107;-41
2023/02/01 06:06:14;;;;;;;1.40;1.20;;;6.00;99.90;;;;;;5070902;28;20177;-42
2023/02/01 06:08:40;;;;;;;1.67;1.35;;;6.20;99.90;;;;;;5071143;28;20074;-33
2023/02/01 06:11:06;;;;;;;1.70;1.10;;;6.40;99.90;;;;;;5070852;28;20017;-35
2023/02/01 06:13:32;;;;;;;1.98;1.38;;;6.60;99.90;;;;;;5070837;28;20025;-42
2023/02/01 06:15:58;;;;;;;1.75;1.20;;;6.70;99.90;;;;;;5071310;28;20087;-43
2023/02/01 06:18:24;;;;;;;2.83;1.30;;;6.70;99.90;;;;;;5074921;28;20056;-35
2023/02/01 06:20:59;;;;;;;2.25;1.35;;;6.70;99.90;;;;;;5075272;28;20052;-43
2023/02/01 06:23:25;;;;;;;1.90;1.23;;;6.60;99.90;;;;;;5074581;28;20023;-43
2023/02/01 06:26:03;;;;;;;1.35;1.25;;;6.50;99.90;;;;;;5074374;28;20017;-43
2023/02/01 06:28:29;;;;;;;1.25;1.05;;;6.40;99.90;;;;;;5074560;28;20425;-38
2023/02/01 06:30:55;;;;;;;1.73;1.23;;;6.30;99.90;;;;;;5074400;28;20028;-36
2023/02/01 06:33:21;;;;;;;1.40;1.20;;;6.30;99.90;;;;;;5074207;28;20025;-35
2023/02/01 06:35:46;;;;;;;1.75;1.25;;;6.20;99.90;;;;;;5074239;28;20027;-42
2023/02/01 06:38:13;;;;;;;1.65;1.30;;;6.10;99.90;;;;;;5074179;28;20105;-35
2023/02/01 06:40:40;;;;;;;1.42;1.05;;;6.10;99.90;;;;;;5074343;28;20093;-42
2023/02/01 06:43:06;;;;;;;3.00;1.30;;;6.10;99.90;;;;;;5074828;28;20069;-36
2023/02/01 06:45:32;;;;;;;2.30;1.33;;;6.00;99.90;;;;;;5074319;28;20096;-43
2023/02/01 06:48:00;;;;;;;1.45;1.02;;;5.90;99.90;;;;;;5072572;28;20386;-42
2023/02/01 06:50:26;;;;;;;1.67;1.30;;;5.90;99.90;;;;;;5074016;28;20066;-34
2023/02/01 06:52:51;;;;;;;2.15;1.40;;;5.90;99.90;;;;;;5074255;28;20033;-43
2023/02/01 06:55:18;;;;;;;2.65;1.05;;;5.90;99.90;;;;;;5074469;28;20082;-39
2023/02/01 06:57:43;;;;;;;1.48;1.20;;;5.80;99.90;;;;;;5073988;28;20107;-36
2023/02/01 07:00:10;;;;;;;1.75;0.98;;;5.80;99.90;;;;;;5073750;28;20100;-42
2023/02/01 07:02:35;;;;;;;2.15;1.10;;;5.80;99.90;;;;;;5075629;28;20107;-34
2023/02/01 07:05:01;;;;;;;1.48;1.10;;;5.90;99.90;;;;;;5073821;28;20104;-37
2023/02/01 07:07:26;;;;;;;1.42;1.10;;;6.00;99.90;;;;;;5074020;28;20028;-40
2023/02/01 07:09:52;;;;;;;1.75;1.08;;;6.30;99.90;;;;;;5073710;28;20029;-33
2023/02/01 07:12:19;;;;;;;1.58;1.20;;;6.50;99.90;;;;;;5074989;28;20029;-42
2023/02/01 07:14:44;;;;;;;1.55;1.10;;;6.70;99.90;;;;;;5073582;28;20020;-35
2023/02/01 07:17:10;;;;;;;2.75;1.30;;;6.70;99.90;;;;;;5073512;28;20111;-43
2023/02/01 07:19:36;;;;;;;3.13;1.00;;;6.70;99.90;;;;;;5074124;28;20034;-38
2023/02/01 07:22:01;;;;;;;1.67;1.02;;;6.60;99.90;;;;;;5073478;28;20021;-32
2023/02/01 07:24:27;;;;;;;1.40;1.20;;;6.50;99.90;;;;;;5073517;28;20394;-43
2023/02/01 07:26:52;;;;;;;3.25;1.20;;;6.50;99.90;;;;;;5072735;28;20107;-41
2023/02/01 07:29:18;;;;;;;2.33;1.30;;;6.40;99.90;;;;;;5072493;28;20470;-41
2023/02/01 07:31:44;;;;;;;1.88;1.17;;;6.30;99.90;;;;;;5073382;28;20029;-40
2023/02/01 07:34:10;;;;;;;4.00;2.45;;;6.20;99.90;;;;;;5073033;28;20021;-42
2023/02/01 07:36:36;;;;;;;4.40;2.47;;;6.20;99.90;;;;;;5072970;28;20036;-42
2023/02/01 07:39:05;;;;;;;4.90;2.60;;;6.10;99.90;;;;;;5073186;28;20055;-35
2023/02/01 07:41:31;;;;;;;4.85;2.67;;;6.10;99.90;;;;;;5073232;28;20027;-35
2023/02/01 07:43:56;;;;;;;5.32;2.80;;;6.00;99.90;;;;;;5073269;28;20017;-37
2023/02/01 07:46:22;;;;;;;7.45;2.78;;;6.10;99.90;;;;;;5072956;28;20028;-34
2023/02/01 07:48:48;;;;;;;6.38;2.85;;;6.00;99.90;;;;;;5073085;28;20064;-38
2023/02/01 07:51:16;;;;;;;4.95;2.63;;;6.00;99.90;;;;;;5073104;28;20021;-34
2023/02/01 07:53:43;;;;;;;3.78;2.83;;;6.00;99.90;;;;;;5072845;28;20039;-34
2023/02/01 07:56:14;;;;;;;4.57;2.63;;;6.00;99.90;;;;;;5072702;28;20537;-32
2023/02/01 07:58:40;;;;;;;4.53;2.60;;;6.00;99.90;;;;;;5072845;28;20178;-32
2023/02/01 08:01:21;;;;;;;4.97;2.40;;;6.00;99.90;;;;;;5072879;28;20100;-40
2023/02/01 08:03:48;;;;;;;6.88;2.42;;;6.00;99.90;;;;;;5072804;28;20386;-32
2023/02/01 08:06:14;;;;;;;3.53;2.40;;;6.00;99.90;;;;;;5072326;28;20074;-40
2023/02/01 08:08:40;;;;;;;3.50;2.33;;;6.00;99.90;;;;;;5073327;28;20028;-38
2023/02/01 08:11:06;;;;;;;4.63;2.85;;;6.00;99.90;;;;;;5072604;28;20032;-35
2023/02/01 08:13:35;;;;;;;5.05;2.50;;;6.00;99.90;;;;;;5072662;28;20029;-42
2023/02/01 08:16:05;;;;;;;4.90;2.40;;;5.90;99.90;;;;;;5072760;28;20048;-39
2023/02/01 08:18:31;;;;;;;6.00;2.35;;;6.00;99.90;;;;;;5073073;28;20398;-41
2023/02/01 08:21:02;;;;;;;4.13;2.30;;;6.00;99.90;;;;;;5074149;28;20021;-40
2023/02/01 08:23:27;;;;;;;4.85;2.40;;;5.90;99.90;;;;;;5072464;28;20039;-35
2023/02/01 08:25:53;;;;;;;3.38;2.22;;;5.90;99.90;;;;;;5072273;28;20020;-31
2023/02/01 08:28:18;;;;;;;3.22;2.00;;;5.90;99.90;;;;;;5072561;28;20466;-42
2023/02/01 08:30:44;;;;;;;5.82;2.05;;;6.00;99.90;;;;;;5072171;28;20029;-32
2023/02/01 08:33:10;;;;;;;6.00;2.38;;;6.00;99.90;;;;;;5072597;28;20298;-41
2023/02/01 08:35:36;;;;;;;3.08;2.03;;;6.00;99.90;;;;;;5074290;28;20047;-38
2023/02/01 08:38:02;;;;;;;6.63;2.60;;;6.00;99.90;;;;;;5071887;28;20071;-40
2023/02/01 08:40:28;;;;;;;3.72;1.92;;;6.00;99.90;;;;;;5071896;28;20028;-33
2023/02/01 08:42:54;;;;;;;4.97;2.33;;;6.00;99.90;;;;;;5073732;28;20017;-31
2023/02/01 08:45:26;;;;;;;3.75;1.80;;;6.00;99.90;;;;;;5071806;28;20066;-33
2023/02/01 08:47:56;;;;;;;3.83;2.03;;;5.90;99.90;;;;;;5071982;28;20124;-42
2023/02/01 08:50:22;;;;;;;3.10;2.00;;;6.00;99.90;;;;;;5071789;28;20032;-40
2023/02/01 08:52:48;;;;;;;4.55;2.03;;;5.90;99.90;;;;;;5071866;28;20038;-40
2023/02/01 08:55:15;;;;;;;4.75;2.08;;;6.00;99.90;;;;;;5071731;28;20418;-34
2023/02/01 08:57:41;;;;;;;3.63;2.10;;;6.00;99.90;;;;;;5073225;28;20016;-42
2023/02/01 09:00:11;;;;;;;4.38;2.00;;;6.00;99.90;;;;;;5071522;28;20031;-37
2023/02/01 09:02:36;;;;;;;7.35;2.13;;;6.00;99.90;;;;;;5070311;28;20035;-36
2023/02/01 09:05:03;;;;;;;10.65;3.20;;;6.00;99.90;;;;;;5072412;28;20020;-43
2023/02/01 09:07:29;;;;;;;9.95;2.58;;;6.00;99.90;;;;;;5072898;28;20024;-43
2023/02/01 09:09:56;;;;;;;13.02;2.67;;;5.90;99.90;;;;;;5071391;28;20033;-42
2023/02/01 09:12:22;;;;;;;10.60;2.85;;;6.00;99.90;;;;;;5071363;28;20016;-39
2023/02/01 09:14:48;;;;;;;9.32;2.60;;;5.90;99.90;;;;;;5071664;28;20477;-34
2023/02/01 09:17:14;;;;;;;12.90;2.85;;;5.90;99.90;;;;;;5071896;28;20107;-35
2023/02/01 09:19:42;;;;;;;10.50;3.13;;;5.90;99.90;;;;;;5071844;28;20132;-39
2023/02/01 09:22:08;;;;;;;7.78;2.83;;;5.90;99.90;;;;;;5071422;28;20047;-42
2023/02/01 09:24:33;;;;;;;11.38;3.20;;;5.90;99.90;;;;;;5071376;28;20498;-43
2023/02/01 09:26:59;;;;;;;11.02;3.28;;;5.90;99.90;;;;;;5071822;28;20026;-32
2023/02/01 09:29:24;;;;;;;9.07;2.85;;;5.90;99.90;;;;;;5071807;28;20021;-39
2023/02/01 09:31:50;;;;;;;7.65;3.03;;;5.80;99.90;;;;;;5072324;28;20031;-43
2023/02/01 09:34:16;;;;;;;8.65;3.30;;;5.80;99.90;;;;;;5071793;28;20028;-32
2023/02/01 09:36:41;;;;;;;10.15;3.15;;;5.80;99.90;;;;;;5070807;28;20498;-43
2023/02/01 09:39:07;;;;;;;7.47;2.53;;;5.80;99.90;;;;;;5071034;28;20029;-42
2023/02/01 09:41:52;;;;;;;11.73;3.30;;;5.80;99.90;;;;;;5071148;28;20494;-37
2023/02/01 09:44:37;;;;;;;8.18;2.95;;;5.80;99.90;;;;;;5071210;28;20024;-38
2023/02/01 09:47:03;;;;;;;10.20;2.50;;;5.80;99.90;;;;;;5069608;28;20043;-40
2023/02/01 09:49:36;;;;;;;7.88;2.63;;;5.80;99.90;;;;;;5071440;28;20021;-35
2023/02/01 09:52:05;;;;;;;4.60;2.20;;;5.80;99.90;;;;;;5074958;28;20043;-42
2023/02/01 09:54:53;;;;;;;9.13;2.67;;;5.80;99.90;;;;;;5075759;28;20059;-37
2023/02/01 09:57:35;;;;;;;8.32;3.20;;;5.80;99.90;;;;;;5074809;28;20432;-43
2023/02/01 10:00:07;;;;;;;8.02;2.35;;;5.80;99.90;;;;;;5075436;28;20044;-37
2023/02/01 10:02:38;;;;;;;5.72;2.28;;;5.80;99.90;;;;;;5075177;28;20025;-43
2023/02/01 10:05:04;;;;;;;5.90;2.20;;;5.80;99.90;;;;;;5075300;28;20024;-36
2023/02/01 10:07:49;;;;;;;9.80;2.88;;;5.80;99.90;;;;;;5074689;28;20554;-36
2023/02/01 10:10:29;;;;;;;4.55;2.45;;;5.80;99.90;;;;;;5074788;28;20039;-35
2023/02/01 10:13:12;;;;;;;9.88;2.72;;;5.80;99.90;;;;;;5074890;28;20024;-42
2023/02/01 10:15:52;;;;;;;6.38;2.50;;;5.80;99.90;;;;;;5074779;28;20027;-41
2023/02/01 10:18:56;;;;;;;7.07;2.40;;;5.80;99.90;;;;;;5075070;28;20035;-41
2023/02/01 10:21:53;;;;;;;7.85;2.85;;;5.80;99.90;;;;;;5075876;28;20021;-36
2023/02/01 10:24:52;;;;;;;4.68;2.15;;;5.80;99.90;;;;;;5075240;28;20103;-34
2023/02/01 10:27:25;;;;;;;4.88;2.15;;;5.80;99.90;;;;;;5074342;28;20427;-42
2023/02/01 10:30:07;;;;;;;4.25;2.42;;;5.80;99.90;;;;;;5074788;28;20017;-34
2023/02/01 10:32:34;;;;;;;6.05;2.30;;;5.80;99.90;;;;;;5074770;28;20032;-40
2023/02/01 10:35:16;;;;;;;10.35;2.65;;;5.90;99.90;;;;;;5074381;28;20032;-33
2023/02/01 10:37:45;;;;;;;7.95;2.53;;;5.80;99.90;;;;;;5074970;28;20024;-33
2023/02/01 10:40:22;;;;;;;6.75;2.60;;;5.80;99.90;;;;;;5074825;28;20077;-43
2023/02/01 10:42:49;;;;;;;7.22;2.60;;;5.80;99.90;;;;;;5074263;28;20013;-42
2023/02/01 10:45:20;;;;;;;6.93;2.15;;;5.80;99.90;;;;;;5074192;28;20027;-43
2023/02/01 10:47:48;;;;;;;5.60;2.60;;;5.90;99.90;;;;;;5074578;28;20024;-37
2023/02/01 10:50:32;;;;;;;5.93;2.20;;;5.90;99.90;;;;;;5074473;28;20036;-40
2023/02/01 10:53:17;;;;;;;5.90;2.15;;;5.90;99.90;;;;;;5074153;28;20029;-39
2023/02/01 10:55:49;;;;;;;6.10;2.53;;;5.90;99.90;;;;;;5074203;28;20396;-32
2023/02/01 10:58:31;;;;;;;9.25;2.33;;;5.90;99.90;;;;;;5073886;28;20406;-38
2023/02/01 11:01:03;;;;;;;7.55;2.30;;;5.90;99.90;;;;;;5073886;28;20413;-43
2023/02/01 11:03:57;;;;;;;6.93;2.15;;;5.90;99.90;;;;;;5073519;28;20506;-41
2023/02/01 11:06:52;;;;;;;10.70;2.70;;;5.90;99.90;;;;;;5072284;28;20024;-42
2023/02/01 11:09:24;;;;;;;10.00;2.70;;;5.90;99.90;;;;;;5073408;28;20339;-43
2023/02/01 11:11:50;;;;;;;6.50;2.10;;;5.90;99.90;;;;;;5073756;28;20074;-41
2023/02/01 11:14:24;;;;;;;8.02;2.60;;;5.90;99.90;;;;;;5073709;28;20020;-43
2023/02/01 11:17:02;;;;;;;6.22;2.20;;;5.90;99.90;;;;;;5072283;28;20043;-37
2023/02/01 11:19:29;;;;;;;8.63;2.85;;;5.90;99.90;;;;;;5073614;28;20455;-43
2023/02/01 11:21:57;;;;;;;6.15;2.22;;;5.90;99.90;;;;;;5074767;28;20391;-37
2023/02/01 11:24:28;;;;;;;3.88;2.38;;;5.90;99.90;;;;;;5072268;28;20039;-37
2023/02/01 11:26:59;;;;;;;10.32;2.45;;;5.90;99.90;;;;;;5073676;28;20444;-42
2023/02/01 11:29:29;;;;;;;6.85;2.72;;;5.90;99.90;;;;;;5073748;28;20028;-33
2023/02/01 11:31:57;;;;;;;7.85;2.50;;;5.90;99.90;;;;;;5073634;28;20368;-34
2023/02/01 11:34:28;;;;;;;11.32;2.75;;;6.00;99.90;;;;;;5073601;28;20020;-43
2023/02/01 11:36:58;;;;;;;7.07;2.65;;;6.00;99.90;;;;;;5073102;28;20091;-41
2023/02/01 11:39:35;;;;;;;11.20;2.83;;;6.00;99.90;;;;;;5074301;28;20044;-40
2023/02/01 11:42:05;;;;;;;12.80;2.78;;;6.00;99.90;;;;;;5073156;28;20032;-40
2023/02/01 11:44:45;;;;;;;18.13;3.67;;;6.00;99.90;;;;;;5073407;28;20440;-43
2023/02/01 11:47:24;;;;;;;15.70;3.13;;;6.00;99.90;;;;;;5072929;28;20032;-39
2023/02/01 11:49:55;;;;;;;18.17;3.30;;;6.10;99.90;;;;;;5073041;28;20031;-44
2023/02/01 11:52:54;;;;;;;14.85;2.47;;;6.10;99.90;;;;;;5072961;28;20028;-39
2023/02/01 11:55:47;;;;;;;10.02;2.50;;;6.10;99.90;;;;;;5072865;28;20107;-42
2023/02/01 11:58:24;;;;;;;12.40;2.83;;;6.10;99.90;;;;;;5072700;28;20033;-44
2023/02/01 12:01:12;;;;;;;12.95;2.60;;;6.10;99.90;;;;;;5072660;28;20032;-44
2023/02/01 12:03:59;;;;;;;12.15;2.42;;;6.10;99.90;;;;;;5072821;28;20021;-44
2023/02/01 12:06:54;;;;;;;12.88;2.92;;;6.20;99.90;;;;;;5072541;28;20039;-41
2023/02/01 12:09:29;;;;;;;13.13;3.08;;;6.20;99.90;;;;;;5072583;28;20047;-37
2023/02/01 12:12:36;;;;;;;8.80;2.70;;;6.20;99.90;;;;;;5072819;28;20029;-34
2023/02/01 12:15:29;;;;;;;11.35;2.95;;;6.20;99.90;;;;;;5072679;28;20039;-36
2023/02/01 12:18:13;;;;;;;8.05;2.60;;;6.20;99.90;;;;;;5072220;28;20059;-44
2023/02/01 12:20:50;;;;;;;18.17;4.15;;;6.20;99.90;;;;;;5073129;28;20024;-43
2023/02/01 12:23:42;;;;;;;18.85;4.35;;;6.20;99.90;;;;;;5073133;28;20024;-43
2023/02/01 12:26:37;;;;;;;18.10;4.72;;;6.20;99.90;;;;;;5072222;28;20028;-43
2023/02/01 12:29:21;;;;;;;19.42;4.75;;;6.20;99.90;;;;;;5070858;28;20032;-43
2023/02/01 12:31:59;;;;;;;14.30;4.70;;;6.20;99.90;;;;;;5072659;28;20024;-36
2023/02/01 12:34:50;;;;;;;14.48;4.28;;;6.20;99.90;;;;;;5072478;28;20029;-43
2023/02/01 12:37:25;;;;;;;17.73;4.53;;;6.10;99.90;;;;;;5072028;28;20020;-40
2023/02/01 12:39:59;;;;;;;15.00;4.28;;;6.10;99.90;;;;;;5072160;28;20028;-36
2023/02/01 12:42:51;;;;;;;;;;;6.20;99.90;;;;;;5072375;28;20021;-43
2023/02/01 12:45:35;;;;;;;13.57;4.72;;;6.10;99.90;;;;;;5072696;28;19905;-42
2023/02/01 12:48:56;;;;;;;21.77;4.18;;;6.10;99.90;;;;;;5072140;28;20096;-36
2023/02/01 12:51:27;;;;;;;12.57;4.00;;;6.10;99.90;;;;;;5069198;28;20086;-38
2023/02/01 12:54:04;;;;;;;13.82;3.53;;;6.10;99.90;;;;;;5069385;28;20028;-43
2023/02/01 12:56:42;;;;;;;16.42;4.35;;;6.10;99.90;;;;;;5070378;28;20036;-36
2023/02/01 12:59:25;;;;;;;12.07;3.50;;;6.00;99.90;;;;;;5071423;28;20070;-43
2023/02/01 13:02:25;;;;;;;12.18;3.97;;;6.10;99.90;;;;;;5071646;28;20025;-39
2023/02/01 13:05:12;;;;;;;19.55;4.20;;;6.00;99.90;;;;;;5071322;28;20040;-33
2023/02/01 13:07:45;;;;;;;11.73;3.60;;;6.00;99.90;;;;;;5071324;28;20032;-43
2023/02/01 13:10:20;;;;;;;16.17;3.60;;;6.00;99.90;;;;;;5071551;28;20039;-42
2023/02/01 13:12:59;;;;;;;12.40;3.75;;;6.00;99.90;;;;;;5072122;28;20390;-43
2023/02/01 13:15:38;;;;;;;11.85;3.50;;;6.10;99.90;;;;;;5071547;28;20260;-34
2023/02/01 13:18:06;;;;;;;9.63;3.60;;;6.00;99.90;;;;;;5071705;28;20052;-33
2023/02/01 13:21:05;;;;;;;13.25;3.75;;;6.10;99.90;;;;;;5071963;28;20021;-35
2023/02/01 13:23:35;;;;;;;12.98;3.78;;;6.00;99.90;;;;;;5071821;28;20027;-34
2023/02/01 13:26:01;;;;;;;13.38;3.90;;;6.00;99.90;;;;;;5071832;28;20060;-43
2023/02/01 13:28:57;;;;;;;13.38;3.50;;;6.00;99.90;;;;;;5072482;28;20052;-36
2023/02/01 13:31:50;;;;;;;12.20;4.10;;;6.00;99.90;;;;;;5071112;28;20040;-33
2023/02/01 13:34:19;;;;;;;9.95;3.25;;;6.00;99.90;;;;;;5071299;28;20165;-42
2023/02/01 13:36:59;;;;;;;14.57;3.83;;;6.00;99.90;;;;;;5070871;28;20024;-41
2023/02/01 13:39:31;;;;;;;10.82;3.42;;;6.00;99.90;;;;;;5071527;28;20093;-35
2023/02/01 13:42:01;;;;;;;13.13;4.03;;;6.00;99.90;;;;;;5071164;28;20505;-32
2023/02/01 13:44:43;;;;;;;16.65;4.18;;;6.00;99.90;;;;;;5071094;28;20033;-36